sensor_id;sensor_type;location;lat;lon;timestamp;pressure;altitude;pressure_sealevel;temperature;humidity
7748;BME280;3918;42.564;23.164;2023-03-20T00:01:12;-11650.84;;;-142.29;65.98
7748;BME280;3918;42.564;23.164;2023-03-20T00:03:39;-11650.84;;;-142.29;67.88
7748;BME280;3918;42.564;23.164;2023-03-20T00:06:12;-11650.84;;;-142.29;67.33
7748;BME280;3918;42.564;23.164;2023-03-20T00:08:40;-11650.84;;;-142.29;67.05
7748;BME280;3918;42.564;23.164;2023-03-20T00:11:21;-11650.84;;;-142.29;66.60
7748;BME280;3918;42.564;23.164;2023-03-20T00:13:53;-11650.84;;;-142.29;65.92
7748;BME280;3918;42.564;23.164;2023-03-20T00:16:23;-11650.84;;;-142.29;65.98
7748;BME280;3918;42.564;23.164;2023-03-20T00:18:50;-11650.84;;;-142.29;64.62
7748;BME280;3918;42.564;23.164;2023-03-20T00:21:17;-11650.84;;;-142.29;65.98
7748;BME280;3918;42.564;23.164;2023-03-20T00:23:44;-11650.84;;;-142.29;67.76
7748;BME280;3918;42.564;23.164;2023-03-20T00:26:13;-11650.84;;;-142.29;68.84
7748;BME280;3918;42.564;23.164;2023-03-20T00:28:43;-11650.84;;;-142.29;70.62
7748;BME280;3918;42.564;23.164;2023-03-20T00:31:22;-11650.84;;;-142.29;71.84
7748;BME280;3918;42.564;23.164;2023-03-20T00:33:52;-11650.84;;;-142.29;74.70
7748;BME280;3918;42.564;23.164;2023-03-20T00:36:19;-11650.84;;;-142.29;74.11
7748;BME280;3918;42.564;23.164;2023-03-20T00:38:45;-11650.84;;;-142.29;77.80
7748;BME280;3918;42.564;23.164;2023-03-20T00:41:20;-11650.84;;;-142.29;79.44
7748;BME280;3918;42.564;23.164;2023-03-20T00:43:49;-11650.84;;;-142.29;83.54
7748;BME280;3918;42.564;23.164;2023-03-20T00:46:18;-11650.84;;;-142.29;87.36
7748;BME280;3918;42.564;23.164;2023-03-20T00:48:45;-11650.84;;;-142.29;91.01
7748;BME280;3918;42.564;23.164;2023-03-20T00:51:14;-11650.84;;;-142.29;92.92
7748;BME280;3918;42.564;23.164;2023-03-20T00:53:40;-11650.84;;;-142.29;93.77
7748;BME280;3918;42.564;23.164;2023-03-20T00:56:31;-11650.84;;;-142.29;95.08
7748;BME280;3918;42.564;23.164;2023-03-20T00:58:59;-11650.84;;;-142.29;90.66
7748;BME280;3918;42.564;23.164;2023-03-20T01:01:27;-11650.84;;;-142.29;90.22
7748;BME280;3918;42.564;23.164;2023-03-20T01:03:54;-11650.84;;;-142.29;89.38
7748;BME280;3918;42.564;23.164;2023-03-20T01:06:23;-11650.84;;;-142.29;90.51
7748;BME280;3918;42.564;23.164;2023-03-20T01:08:49;-11650.84;;;-142.29;91.09
7748;BME280;3918;42.564;23.164;2023-03-20T01:11:21;-11650.84;;;-142.29;88.12
7748;BME280;3918;42.564;23.164;2023-03-20T01:13:49;-11650.84;;;-142.29;83.59
7748;BME280;3918;42.564;23.164;2023-03-20T01:16:19;-11650.84;;;-142.29;79.44
7748;BME280;3918;42.564;23.164;2023-03-20T01:18:47;-11650.84;;;-142.29;77.91
7748;BME280;3918;42.564;23.164;2023-03-20T01:21:14;-11650.84;;;-142.29;80.56
7748;BME280;3918;42.564;23.164;2023-03-20T01:23:42;-11650.84;;;-142.29;79.14
7748;BME280;3918;42.564;23.164;2023-03-20T01:26:19;-11650.84;;;-142.29;79.75
7748;BME280;3918;42.564;23.164;2023-03-20T01:28:47;-11650.84;;;-142.29;80.83
7748;BME280;3918;42.564;23.164;2023-03-20T01:31:15;-11650.84;;;-142.29;79.29
7748;BME280;3918;42.564;23.164;2023-03-20T01:33:42;-11650.84;;;-142.29;77.90
7748;BME280;3918;42.564;23.164;2023-03-20T01:36:10;-11650.84;;;-142.29;71.69
7748;BME280;3918;42.564;23.164;2023-03-20T01:38:37;-11650.84;;;-142.29;68.03
7748;BME280;3918;42.564;23.164;2023-03-20T01:41:11;-11650.84;;;-142.29;68.50
7748;BME280;3918;42.564;23.164;2023-03-20T01:43:38;-11650.84;;;-142.29;72.45
7748;BME280;3918;42.564;23.164;2023-03-20T01:46:14;-11650.84;;;-142.29;72.03
7748;BME280;3918;42.564;23.164;2023-03-20T01:51:53;-11650.84;;;-142.29;77.04
7748;BME280;3918;42.564;23.164;2023-03-20T01:54:23;-11650.84;;;-142.29;75.11
7748;BME280;3918;42.564;23.164;2023-03-20T01:56:55;-11650.84;;;-142.29;71.92
7748;BME280;3918;42.564;23.164;2023-03-20T01:59:26;-11650.84;;;-142.29;67.48
7748;BME280;3918;42.564;23.164;2023-03-20T02:01:55;-11650.84;;;-142.29;63.28
7748;BME280;3918;42.564;23.164;2023-03-20T02:04:27;-11650.84;;;-142.29;61.64
7748;BME280;3918;42.564;23.164;2023-03-20T02:06:55;-11650.84;;;-142.29;59.27
7748;BME280;3918;42.564;23.164;2023-03-20T02:09:22;-11650.84;;;-142.29;56.76
7748;BME280;3918;42.564;23.164;2023-03-20T02:11:50;-11650.84;;;-142.29;55.87
7748;BME280;3918;42.564;23.164;2023-03-20T02:14:19;-11650.84;;;-142.29;54.81
7748;BME280;3918;42.564;23.164;2023-03-20T02:16:46;-11650.84;;;-142.29;54.57
7748;BME280;3918;42.564;23.164;2023-03-20T02:19:18;-11650.84;;;-142.29;54.38
7748;BME280;3918;42.564;23.164;2023-03-20T02:22:23;-11650.84;;;-142.29;53.82
7748;BME280;3918;42.564;23.164;2023-03-20T02:28:02;-11650.84;;;-142.29;52.80
7748;BME280;3918;42.564;23.164;2023-03-20T02:30:47;-11650.84;;;-142.29;52.89
7748;BME280;3918;42.564;23.164;2023-03-20T02:36:32;-11650.84;;;-142.29;53.35
7748;BME280;3918;42.564;23.164;2023-03-20T02:39:32;-11650.84;;;-142.29;53.92
7748;BME280;3918;42.564;23.164;2023-03-20T02:42:09;-11650.84;;;-142.29;53.34
7748;BME280;3918;42.564;23.164;2023-03-20T02:44:42;-11650.84;;;-142.29;53.86
7748;BME280;3918;42.564;23.164;2023-03-20T02:47:13;-11650.84;;;-142.29;54.27
7748;BME280;3918;42.564;23.164;2023-03-20T02:49:54;-11650.84;;;-142.29;54.15
7748;BME280;3918;42.564;23.164;2023-03-20T02:52:31;-11650.84;;;-142.29;54.02
7748;BME280;3918;42.564;23.164;2023-03-20T02:55:07;-11650.84;;;-142.29;54.10
7748;BME280;3918;42.564;23.164;2023-03-20T02:57:41;-11650.84;;;-142.29;53.71
7748;BME280;3918;42.564;23.164;2023-03-20T03:00:12;-11650.84;;;-142.29;53.62
7748;BME280;3918;42.564;23.164;2023-03-20T03:02:46;-11650.84;;;-142.29;52.82
7748;BME280;3918;42.564;23.164;2023-03-20T03:05:18;-11650.84;;;-142.29;52.89
7748;BME280;3918;42.564;23.164;2023-03-20T03:07:49;-11650.84;;;-142.29;52.51
7748;BME280;3918;42.564;23.164;2023-03-20T03:10:23;-11650.84;;;-142.29;52.09
7748;BME280;3918;42.564;23.164;2023-03-20T03:12:52;-11650.84;;;-142.29;52.03
7748;BME280;3918;42.564;23.164;2023-03-20T03:15:26;-11650.84;;;-142.29;51.88
7748;BME280;3918;42.564;23.164;2023-03-20T03:17:56;-11650.84;;;-142.29;52.05
7748;BME280;3918;42.564;23.164;2023-03-20T03:20:27;-11650.84;;;-142.29;51.83
7748;BME280;3918;42.564;23.164;2023-03-20T03:22:55;-11650.84;;;-142.29;52.37
7748;BME280;3918;42.564;23.164;2023-03-20T03:25:25;-11650.84;;;-142.29;52.46
7748;BME280;3918;42.564;23.164;2023-03-20T03:27:57;-11650.84;;;-142.29;52.61
7748;BME280;3918;42.564;23.164;2023-03-20T03:30:27;-11650.84;;;-142.29;52.88
7748;BME280;3918;42.564;23.164;2023-03-20T03:33:08;-11650.84;;;-142.29;52.80
7748;BME280;3918;42.564;23.164;2023-03-20T03:35:35;-11650.84;;;-142.29;52.67
7748;BME280;3918;42.564;23.164;2023-03-20T03:38:15;-11650.84;;;-142.29;52.33
7748;BME280;3918;42.564;23.164;2023-03-20T03:40:51;-11650.84;;;-142.29;52.07
7748;BME280;3918;42.564;23.164;2023-03-20T03:43:28;-11650.84;;;-142.29;51.81
7748;BME280;3918;42.564;23.164;2023-03-20T03:45:59;-11650.84;;;-142.29;51.90
7748;BME280;3918;42.564;23.164;2023-03-20T03:48:31;-11650.84;;;-142.29;51.69
7748;BME280;3918;42.564;23.164;2023-03-20T03:51:03;-11650.84;;;-142.29;51.72
7748;BME280;3918;42.564;23.164;2023-03-20T03:53:35;-11650.84;;;-142.29;51.69
7748;BME280;3918;42.564;23.164;2023-03-20T03:56:08;-11650.84;;;-142.29;51.81
7748;BME280;3918;42.564;23.164;2023-03-20T03:58:39;-11650.84;;;-142.29;51.92
7748;BME280;3918;42.564;23.164;2023-03-20T04:01:08;-11650.84;;;-142.29;52.16
7748;BME280;3918;42.564;23.164;2023-03-20T04:03:38;-11650.84;;;-142.29;52.38
7748;BME280;3918;42.564;23.164;2023-03-20T04:06:08;-11650.84;;;-142.29;52.34
7748;BME280;3918;42.564;23.164;2023-03-20T04:08:35;-11650.84;;;-142.29;52.26
7748;BME280;3918;42.564;23.164;2023-03-20T04:11:02;-11650.84;;;-142.29;52.21
7748;BME280;3918;42.564;23.164;2023-03-20T04:13:30;-11650.84;;;-142.29;52.06
7748;BME280;3918;42.564;23.164;2023-03-20T04:15:57;-11650.84;;;-142.29;52.18
7748;BME280;3918;42.564;23.164;2023-03-20T04:18:24;-11650.84;;;-142.29;52.94
7748;BME280;3918;42.564;23.164;2023-03-20T04:20:51;-11650.84;;;-142.29;53.50
7748;BME280;3918;42.564;23.164;2023-03-20T04:23:17;-11650.84;;;-142.29;54.38
7748;BME280;3918;42.564;23.164;2023-03-20T04:25:44;-11650.84;;;-142.29;54.83
7748;BME280;3918;42.564;23.164;2023-03-20T04:28:11;-11650.84;;;-142.29;55.89
7748;BME280;3918;42.564;23.164;2023-03-20T04:30:42;-11650.84;;;-142.29;57.00
7748;BME280;3918;42.564;23.164;2023-03-20T04:33:12;-11650.84;;;-142.29;58.46
7748;BME280;3918;42.564;23.164;2023-03-20T04:35:39;-11650.84;;;-142.29;60.06
7748;BME280;3918;42.564;23.164;2023-03-20T04:38:06;-11650.84;;;-142.29;59.65
7748;BME280;3918;42.564;23.164;2023-03-20T04:40:33;-11650.84;;;-142.29;58.17
7748;BME280;3918;42.564;23.164;2023-03-20T04:43:00;-11650.84;;;-142.29;57.46
7748;BME280;3918;42.564;23.164;2023-03-20T04:45:26;-11650.84;;;-142.29;55.44
7748;BME280;3918;42.564;23.164;2023-03-20T04:47:54;-11650.84;;;-142.29;53.87
7748;BME280;3918;42.564;23.164;2023-03-20T04:50:22;-11650.84;;;-142.29;53.18
7748;BME280;3918;42.564;23.164;2023-03-20T04:52:49;-11650.84;;;-142.29;52.63
7748;BME280;3918;42.564;23.164;2023-03-20T04:55:16;-11650.84;;;-142.29;52.31
7748;BME280;3918;42.564;23.164;2023-03-20T04:57:42;-11650.84;;;-142.29;51.75
7748;BME280;3918;42.564;23.164;2023-03-20T05:00:10;-11650.84;;;-142.29;51.34
7748;BME280;3918;42.564;23.164;2023-03-20T05:02:37;-11650.84;;;-142.29;51.82
7748;BME280;3918;42.564;23.164;2023-03-20T05:05:06;-11650.84;;;-142.29;51.33
7748;BME280;3918;42.564;23.164;2023-03-20T05:07:33;-11650.84;;;-142.29;51.05
7748;BME280;3918;42.564;23.164;2023-03-20T05:10:00;-11650.84;;;-142.29;50.19
7748;BME280;3918;42.564;23.164;2023-03-20T05:12:27;-11650.84;;;-142.29;50.58
7748;BME280;3918;42.564;23.164;2023-03-20T05:14:54;-11650.84;;;-142.29;50.43
7748;BME280;3918;42.564;23.164;2023-03-20T05:17:20;-11650.84;;;-142.29;49.59
7748;BME280;3918;42.564;23.164;2023-03-20T05:19:47;-11650.84;;;-142.29;49.13
7748;BME280;3918;42.564;23.164;2023-03-20T05:22:16;-11650.84;;;-142.29;48.88
7748;BME280;3918;42.564;23.164;2023-03-20T05:24:43;-11650.84;;;-142.29;48.85
7748;BME280;3918;42.564;23.164;2023-03-20T05:27:10;-11650.84;;;-142.29;48.01
7748;BME280;3918;42.564;23.164;2023-03-20T05:29:37;-11650.84;;;-142.29;47.49
7748;BME280;3918;42.564;23.164;2023-03-20T05:32:04;-11650.84;;;-142.29;46.13
7748;BME280;3918;42.564;23.164;2023-03-20T05:34:31;-11650.84;;;-142.29;45.06
7748;BME280;3918;42.564;23.164;2023-03-20T05:36:58;-11650.84;;;-142.29;44.78
7748;BME280;3918;42.564;23.164;2023-03-20T05:39:26;-11650.84;;;-142.29;43.21
7748;BME280;3918;42.564;23.164;2023-03-20T05:41:52;-11650.84;;;-142.29;41.88
7748;BME280;3918;42.564;23.164;2023-03-20T05:44:19;-11650.84;;;-142.29;41.37
7748;BME280;3918;42.564;23.164;2023-03-20T05:46:46;-11650.84;;;-142.29;41.21
7748;BME280;3918;42.564;23.164;2023-03-20T05:49:13;-11650.84;;;-142.29;40.66
7748;BME280;3918;42.564;23.164;2023-03-20T05:51:40;-11650.84;;;-142.29;40.53
7748;BME280;3918;42.564;23.164;2023-03-20T05:54:06;-11650.84;;;-142.29;41.07
7748;BME280;3918;42.564;23.164;2023-03-20T05:56:35;-11650.84;;;-142.29;41.36
7748;BME280;3918;42.564;23.164;2023-03-20T05:59:01;-11650.84;;;-142.29;40.42
7748;BME280;3918;42.564;23.164;2023-03-20T06:01:28;-11650.84;;;-142.29;39.55
7748;BME280;3918;42.564;23.164;2023-03-20T06:03:55;-11650.84;;;-142.29;39.31
7748;BME280;3918;42.564;23.164;2023-03-20T06:06:22;-11650.84;;;-142.29;38.59
7748;BME280;3918;42.564;23.164;2023-03-20T06:08:49;-11650.84;;;-142.29;37.30
7748;BME280;3918;42.564;23.164;2023-03-20T06:11:16;-11650.84;;;-142.29;36.78
7748;BME280;3918;42.564;23.164;2023-03-20T06:13:44;-11650.84;;;-142.29;37.20
7748;BME280;3918;42.564;23.164;2023-03-20T06:16:11;-11650.84;;;-142.29;36.93
7748;BME280;3918;42.564;23.164;2023-03-20T06:18:37;-11650.84;;;-142.29;36.90
7748;BME280;3918;42.564;23.164;2023-03-20T06:21:04;-11650.84;;;-142.29;36.54
7748;BME280;3918;42.564;23.164;2023-03-20T06:23:31;-11650.84;;;-142.29;35.94
7748;BME280;3918;42.564;23.164;2023-03-20T06:25:58;-11650.84;;;-142.29;35.27
7748;BME280;3918;42.564;23.164;2023-03-20T06:28:25;-11650.84;;;-142.29;34.86
7748;BME280;3918;42.564;23.164;2023-03-20T06:30:53;-11650.84;;;-142.29;34.86
7748;BME280;3918;42.564;23.164;2023-03-20T06:33:20;-11650.84;;;-142.29;34.32
7748;BME280;3918;42.564;23.164;2023-03-20T06:35:47;-11650.84;;;-142.29;33.93
7748;BME280;3918;42.564;23.164;2023-03-20T06:38:14;-11650.84;;;-142.29;34.23
7748;BME280;3918;42.564;23.164;2023-03-20T06:40:42;-11650.84;;;-142.29;34.15
7748;BME280;3918;42.564;23.164;2023-03-20T06:43:09;-11650.84;;;-142.29;35.43
7748;BME280;3918;42.564;23.164;2023-03-20T06:45:36;-11650.84;;;-142.29;35.06
7748;BME280;3918;42.564;23.164;2023-03-20T06:48:06;-11650.84;;;-142.29;34.57
7748;BME280;3918;42.564;23.164;2023-03-20T06:50:33;-11650.84;;;-142.29;34.47
7748;BME280;3918;42.564;23.164;2023-03-20T06:53:00;-11650.84;;;-142.29;34.35
7748;BME280;3918;42.564;23.164;2023-03-20T06:55:27;-11650.84;;;-142.29;34.27
7748;BME280;3918;42.564;23.164;2023-03-20T06:57:54;-11650.84;;;-142.29;34.24
7748;BME280;3918;42.564;23.164;2023-03-20T07:00:21;-11650.84;;;-142.29;33.81
7748;BME280;3918;42.564;23.164;2023-03-20T07:02:48;-11650.84;;;-142.29;34.58
7748;BME280;3918;42.564;23.164;2023-03-20T07:05:16;-11650.84;;;-142.29;34.19
7748;BME280;3918;42.564;23.164;2023-03-20T07:07:43;-11650.84;;;-142.29;34.20
7748;BME280;3918;42.564;23.164;2023-03-20T07:10:10;-11650.84;;;-142.29;34.04
7748;BME280;3918;42.564;23.164;2023-03-20T07:12:38;-11650.84;;;-142.29;33.64
7748;BME280;3918;42.564;23.164;2023-03-20T07:15:05;-11650.84;;;-142.29;33.89
7748;BME280;3918;42.564;23.164;2023-03-20T07:17:32;-11650.84;;;-142.29;34.40
7748;BME280;3918;42.564;23.164;2023-03-20T07:19:59;-11650.84;;;-142.29;34.27
7748;BME280;3918;42.564;23.164;2023-03-20T07:22:28;-11650.84;;;-142.29;34.23
7748;BME280;3918;42.564;23.164;2023-03-20T07:24:56;-11650.84;;;-142.29;33.85
7748;BME280;3918;42.564;23.164;2023-03-20T07:27:22;-11650.84;;;-142.29;34.08
7748;BME280;3918;42.564;23.164;2023-03-20T07:29:49;-11650.84;;;-142.29;33.94
7748;BME280;3918;42.564;23.164;2023-03-20T07:32:16;-11650.84;;;-142.29;34.26
7748;BME280;3918;42.564;23.164;2023-03-20T07:34:43;-11650.84;;;-142.29;34.13
7748;BME280;3918;42.564;23.164;2023-03-20T07:37:12;-11650.84;;;-142.29;33.22
7748;BME280;3918;42.564;23.164;2023-03-20T07:39:40;-11650.84;;;-142.29;32.95
7748;BME280;3918;42.564;23.164;2023-03-20T07:42:07;-11650.84;;;-142.29;32.34
7748;BME280;3918;42.564;23.164;2023-03-20T07:44:33;-11650.84;;;-142.29;32.79
7748;BME280;3918;42.564;23.164;2023-03-20T07:47:00;-11650.84;;;-142.29;32.65
7748;BME280;3918;42.564;23.164;2023-03-20T07:49:27;-11650.84;;;-142.29;32.89
7748;BME280;3918;42.564;23.164;2023-03-20T07:51:54;-11650.84;;;-142.29;33.22
7748;BME280;3918;42.564;23.164;2023-03-20T07:54:21;-11650.84;;;-142.29;31.67
7748;BME280;3918;42.564;23.164;2023-03-20T07:56:49;-11650.84;;;-142.29;31.03
7748;BME280;3918;42.564;23.164;2023-03-20T07:59:17;-11650.84;;;-142.29;31.66
7748;BME280;3918;42.564;23.164;2023-03-20T08:01:44;-11650.84;;;-142.29;31.26
7748;BME280;3918;42.564;23.164;2023-03-20T08:04:10;-11650.84;;;-142.29;31.53
7748;BME280;3918;42.564;23.164;2023-03-20T08:06:37;-11650.84;;;-142.29;31.92
7748;BME280;3918;42.564;23.164;2023-03-20T08:09:05;-11650.84;;;-142.29;31.72
7748;BME280;3918;42.564;23.164;2023-03-20T08:11:32;-11650.84;;;-142.29;32.48
7748;BME280;3918;42.564;23.164;2023-03-20T08:14:00;-11650.84;;;-142.29;30.88
7748;BME280;3918;42.564;23.164;2023-03-20T08:16:27;-11650.84;;;-142.29;30.31
7748;BME280;3918;42.564;23.164;2023-03-20T08:18:54;-11650.84;;;-142.29;29.80
7748;BME280;3918;42.564;23.164;2023-03-20T08:21:25;-11650.84;;;-142.29;30.62
7748;BME280;3918;42.564;23.164;2023-03-20T08:23:52;-11650.84;;;-142.29;30.09
7748;BME280;3918;42.564;23.164;2023-03-20T08:26:20;-11650.84;;;-142.29;30.58
7748;BME280;3918;42.564;23.164;2023-03-20T08:28:47;-11650.84;;;-142.29;30.85
7748;BME280;3918;42.564;23.164;2023-03-20T08:31:15;-11650.84;;;-142.29;30.47
7748;BME280;3918;42.564;23.164;2023-03-20T08:33:43;-11650.84;;;-142.29;31.28
7748;BME280;3918;42.564;23.164;2023-03-20T08:36:10;-11650.84;;;-142.29;30.69
7748;BME280;3918;42.564;23.164;2023-03-20T08:38:38;-11650.84;;;-142.29;30.46
7748;BME280;3918;42.564;23.164;2023-03-20T08:41:05;-11650.84;;;-142.29;30.39
7748;BME280;3918;42.564;23.164;2023-03-20T08:43:32;-11650.84;;;-142.29;30.17
7748;BME280;3918;42.564;23.164;2023-03-20T08:45:59;-11650.84;;;-142.29;30.53
7748;BME280;3918;42.564;23.164;2023-03-20T08:48:27;-11650.84;;;-142.29;30.19
7748;BME280;3918;42.564;23.164;2023-03-20T08:50:54;-11650.84;;;-142.29;29.87
7748;BME280;3918;42.564;23.164;2023-03-20T08:53:20;-11650.84;;;-142.29;30.07
7748;BME280;3918;42.564;23.164;2023-03-20T08:55:47;-11650.84;;;-142.29;29.71
7748;BME280;3918;42.564;23.164;2023-03-20T08:58:14;-11650.84;;;-142.29;29.42
7748;BME280;3918;42.564;23.164;2023-03-20T09:00:42;-11650.84;;;-142.29;29.58
7748;BME280;3918;42.564;23.164;2023-03-20T09:03:11;-11650.84;;;-142.29;29.25
7748;BME280;3918;42.564;23.164;2023-03-20T09:05:40;-11650.84;;;-142.29;30.03
7748;BME280;3918;42.564;23.164;2023-03-20T09:08:07;-11650.84;;;-142.29;29.73
7748;BME280;3918;42.564;23.164;2023-03-20T09:10:34;-11650.84;;;-142.29;30.28
7748;BME280;3918;42.564;23.164;2023-03-20T09:13:01;-11650.84;;;-142.29;30.61
7748;BME280;3918;42.564;23.164;2023-03-20T09:15:27;-11650.84;;;-142.29;30.84
7748;BME280;3918;42.564;23.164;2023-03-20T09:17:55;-11650.84;;;-142.29;31.56
7748;BME280;3918;42.564;23.164;2023-03-20T09:20:21;-11650.84;;;-142.29;30.83
7748;BME280;3918;42.564;23.164;2023-03-20T09:22:49;-11650.84;;;-142.29;31.99
7748;BME280;3918;42.564;23.164;2023-03-20T09:25:16;-11650.84;;;-142.29;31.37
7748;BME280;3918;42.564;23.164;2023-03-20T09:27:43;-11650.84;;;-142.29;31.21
7748;BME280;3918;42.564;23.164;2023-03-20T09:30:11;-11650.84;;;-142.29;32.38
7748;BME280;3918;42.564;23.164;2023-03-20T09:32:38;-11650.84;;;-142.29;29.95
7748;BME280;3918;42.564;23.164;2023-03-20T09:35:05;-11650.84;;;-142.29;31.07
7748;BME280;3918;42.564;23.164;2023-03-20T09:37:32;-11650.84;;;-142.29;31.80
7748;BME280;3918;42.564;23.164;2023-03-20T09:40:00;-11650.84;;;-142.29;32.13
7748;BME280;3918;42.564;23.164;2023-03-20T09:42:36;-11650.84;;;-142.29;31.61
7748;BME280;3918;42.564;23.164;2023-03-20T09:45:10;-11650.84;;;-142.29;33.67
7748;BME280;3918;42.564;23.164;2023-03-20T09:47:45;-11650.84;;;-142.29;31.58
7748;BME280;3918;42.564;23.164;2023-03-20T09:50:23;-11650.84;;;-142.29;31.12
7748;BME280;3918;42.564;23.164;2023-03-20T09:52:58;-11650.84;;;-142.29;31.46
7748;BME280;3918;42.564;23.164;2023-03-20T09:55:33;-11650.84;;;-142.29;31.42
7748;BME280;3918;42.564;23.164;2023-03-20T09:58:04;-11650.84;;;-142.29;33.71
7748;BME280;3918;42.564;23.164;2023-03-20T10:00:34;-11650.84;;;-142.29;31.40
7748;BME280;3918;42.564;23.164;2023-03-20T10:03:03;-11650.84;;;-142.29;32.70
7748;BME280;3918;42.564;23.164;2023-03-20T10:05:34;-11650.84;;;-142.29;31.95
7748;BME280;3918;42.564;23.164;2023-03-20T10:08:04;-11650.84;;;-142.29;32.02
7748;BME280;3918;42.564;23.164;2023-03-20T10:10:41;-11650.84;;;-142.29;32.41
7748;BME280;3918;42.564;23.164;2023-03-20T10:13:42;-11650.84;;;-142.29;32.66
7748;BME280;3918;42.564;23.164;2023-03-20T10:16:18;-11650.84;;;-142.29;31.61
7748;BME280;3918;42.564;23.164;2023-03-20T10:18:55;-11650.84;;;-142.29;30.91
7748;BME280;3918;42.564;23.164;2023-03-20T10:21:31;-11650.84;;;-142.29;31.86
7748;BME280;3918;42.564;23.164;2023-03-20T10:24:02;-11650.84;;;-142.29;31.53
7748;BME280;3918;42.564;23.164;2023-03-20T10:26:33;-11650.84;;;-142.29;30.35
7748;BME280;3918;42.564;23.164;2023-03-20T10:29:04;-11650.84;;;-142.29;31.68
7748;BME280;3918;42.564;23.164;2023-03-20T10:31:40;-11650.84;;;-142.29;32.71
7748;BME280;3918;42.564;23.164;2023-03-20T10:34:19;-11650.84;;;-142.29;31.39
7748;BME280;3918;42.564;23.164;2023-03-20T10:36:59;-11650.84;;;-142.29;29.69
7748;BME280;3918;42.564;23.164;2023-03-20T10:39:42;-11650.84;;;-142.29;31.33
7748;BME280;3918;42.564;23.164;2023-03-20T10:42:18;-11650.84;;;-142.29;31.86
7748;BME280;3918;42.564;23.164;2023-03-20T10:44:51;-11650.84;;;-142.29;31.67
7748;BME280;3918;42.564;23.164;2023-03-20T10:47:22;-11650.84;;;-142.29;31.86
7748;BME280;3918;42.564;23.164;2023-03-20T10:49:53;-11650.84;;;-142.29;31.79
7748;BME280;3918;42.564;23.164;2023-03-20T10:52:23;-11650.84;;;-142.29;31.39
7748;BME280;3918;42.564;23.164;2023-03-20T10:54:55;-11650.84;;;-142.29;31.15
7748;BME280;3918;42.564;23.164;2023-03-20T10:57:26;-11650.84;;;-142.29;31.18
7748;BME280;3918;42.564;23.164;2023-03-20T10:59:56;-11650.84;;;-142.29;30.15
7748;BME280;3918;42.564;23.164;2023-03-20T11:02:26;-11650.84;;;-142.29;31.62
7748;BME280;3918;42.564;23.164;2023-03-20T11:04:54;-11650.84;;;-142.29;32.07
7748;BME280;3918;42.564;23.164;2023-03-20T11:07:23;-11650.84;;;-142.29;32.45
7748;BME280;3918;42.564;23.164;2023-03-20T11:10:07;-11650.84;;;-142.29;30.45
7748;BME280;3918;42.564;23.164;2023-03-20T11:12:38;-11650.84;;;-142.29;30.16
7748;BME280;3918;42.564;23.164;2023-03-20T11:15:15;-11650.84;;;-142.29;31.93
7748;BME280;3918;42.564;23.164;2023-03-20T11:17:51;-11650.84;;;-142.29;31.88
7748;BME280;3918;42.564;23.164;2023-03-20T11:20:18;-11650.84;;;-142.29;31.60
7748;BME280;3918;42.564;23.164;2023-03-20T11:22:46;-11650.84;;;-142.29;30.47
7748;BME280;3918;42.564;23.164;2023-03-20T11:25:23;-11650.84;;;-142.29;31.48
7748;BME280;3918;42.564;23.164;2023-03-20T11:27:53;-11650.84;;;-142.29;32.53
7748;BME280;3918;42.564;23.164;2023-03-20T11:30:20;-11650.84;;;-142.29;31.15
7748;BME280;3918;42.564;23.164;2023-03-20T11:32:48;-11650.84;;;-142.29;30.48
7748;BME280;3918;42.564;23.164;2023-03-20T11:35:21;-11650.84;;;-142.29;30.42
7748;BME280;3918;42.564;23.164;2023-03-20T11:37:53;-11650.84;;;-142.29;32.08
7748;BME280;3918;42.564;23.164;2023-03-20T11:40:23;-11650.84;;;-142.29;32.16
7748;BME280;3918;42.564;23.164;2023-03-20T11:42:56;-11650.84;;;-142.29;31.72
7748;BME280;3918;42.564;23.164;2023-03-20T11:45:23;-11650.84;;;-142.29;32.17
7748;BME280;3918;42.564;23.164;2023-03-20T11:47:53;-11650.84;;;-142.29;31.39
7748;BME280;3918;42.564;23.164;2023-03-20T11:50:29;-11650.84;;;-142.29;31.16
7748;BME280;3918;42.564;23.164;2023-03-20T11:52:56;-11650.84;;;-142.29;32.42
7748;BME280;3918;42.564;23.164;2023-03-20T11:55:26;-11650.84;;;-142.29;31.14
7748;BME280;3918;42.564;23.164;2023-03-20T11:57:59;-11650.84;;;-142.29;32.33
7748;BME280;3918;42.564;23.164;2023-03-20T12:00:29;-11650.84;;;-142.29;31.56
7748;BME280;3918;42.564;23.164;2023-03-20T12:03:02;-11650.84;;;-142.29;30.55
7748;BME280;3918;42.564;23.164;2023-03-20T12:05:31;-11650.84;;;-142.29;31.42
7748;BME280;3918;42.564;23.164;2023-03-20T12:08:01;-11650.84;;;-142.29;30.79
7748;BME280;3918;42.564;23.164;2023-03-20T12:10:33;-11650.84;;;-142.29;30.45
7748;BME280;3918;42.564;23.164;2023-03-20T12:13:05;-11650.84;;;-142.29;30.23
7748;BME280;3918;42.564;23.164;2023-03-20T12:15:40;-11650.84;;;-142.29;30.15
7748;BME280;3918;42.564;23.164;2023-03-20T12:18:11;-11650.84;;;-142.29;30.50
7748;BME280;3918;42.564;23.164;2023-03-20T12:20:44;-11650.84;;;-142.29;30.37
7748;BME280;3918;42.564;23.164;2023-03-20T12:23:13;-11650.84;;;-142.29;30.00
7748;BME280;3918;42.564;23.164;2023-03-20T12:25:46;-11650.84;;;-142.29;29.02
7748;BME280;3918;42.564;23.164;2023-03-20T12:28:21;-11650.84;;;-142.29;28.31
7748;BME280;3918;42.564;23.164;2023-03-20T12:31:00;-11650.84;;;-142.29;28.69
7748;BME280;3918;42.564;23.164;2023-03-20T12:33:40;-11650.84;;;-142.29;28.70
7748;BME280;3918;42.564;23.164;2023-03-20T12:36:13;-11650.84;;;-142.29;29.74
7748;BME280;3918;42.564;23.164;2023-03-20T12:38:41;-11650.84;;;-142.29;30.93
7748;BME280;3918;42.564;23.164;2023-03-20T12:41:11;-11650.84;;;-142.29;31.06
7748;BME280;3918;42.564;23.164;2023-03-20T12:43:50;-11650.84;;;-142.29;28.87
7748;BME280;3918;42.564;23.164;2023-03-20T12:46:26;-11650.84;;;-142.29;29.41
7748;BME280;3918;42.564;23.164;2023-03-20T12:49:04;-11650.84;;;-142.29;28.18
7748;BME280;3918;42.564;23.164;2023-03-20T12:51:45;-11650.84;;;-142.29;28.09
7748;BME280;3918;42.564;23.164;2023-03-20T12:54:25;-11650.84;;;-142.29;27.52
7748;BME280;3918;42.564;23.164;2023-03-20T12:57:05;-11650.84;;;-142.29;27.92
7748;BME280;3918;42.564;23.164;2023-03-20T12:59:52;-11650.84;;;-142.29;30.08
7748;BME280;3918;42.564;23.164;2023-03-20T13:02:33;-11650.84;;;-142.29;29.90
7748;BME280;3918;42.564;23.164;2023-03-20T13:05:23;-11650.84;;;-142.29;29.56